Weather reports worldwide

Advertisment
Zinnwald-Georgenfeld, Germany (10582): temperature & dewpoint: 16.01.2020 01:00:00 - 22.01.2020 01:00:00 (CET)Zinnwald-Georgenfeld, Germany (10582): temperature 5cm & temperature -5cm: 16.01.2020 01:00:00 - 22.01.2020 01:00:00 (CET)Zinnwald-Georgenfeld, Germany (10582): temperature -20cm & temperature -100cm: 16.01.2020 01:00:00 - 22.01.2020 01:00:00 (CET)Zinnwald-Georgenfeld, Germany (10582): wind speed & gusts: 16.01.2020 01:00:00 - 22.01.2020 01:00:00 (CET)Zinnwald-Georgenfeld, Germany (10582): wind direction: 16.01.2020 01:00:00 - 22.01.2020 01:00:00 (CET)Zinnwald-Georgenfeld, Germany (10582): visibility: 16.01.2020 01:00:00 - 22.01.2020 01:00:00 (CET)Zinnwald-Georgenfeld, Germany (10582): sunshine duration: 16.01.2020 01:00:00 - 22.01.2020 01:00:00 (CET)Zinnwald-Georgenfeld, Germany (10582): precipitation: 16.01.2020 01:00:00 - 22.01.2020 01:00:00 (CET)
Date & Time tt [°C] td [°C] tt 5cm [°C] tt -5cm [°C] tt -20cm [°C] tt -100cm [°C] ff [km/h] ff [kn] fx [km/h] fx [kn] dd vv [km] sd [min] rr [mm]
22.01.2020 01:00:00 1,0 -15,3 -2,1 -0,8 0,8 3,3 20 11 26 14 WNW 75 0 0,0
22.01.2020 00:00:00 1,1 -16,5 -3,4 -0,7 0,8 3,3 16 9 24 13 W 75 0 0,0
21.01.2020 23:00:00 0,3 -12,6 -2,7 -0,7 0,8 3,3 19 10 23 12 W 75 0 0,0
21.01.2020 22:00:00 -1,0 -8,8 -4,6 -0,7 0,8 3,3 13 7 24 13 W 75 0 0,0
21.01.2020 21:00:00 -0,4 -10,8 -3,9 -0,6 0,8 3,3 14 8 21 11 WNW 75 0 0,0
21.01.2020 20:00:00 -0,2 -10,7 -3,3 -0,6 0,8 3,3 18 10 26 14 WNW 75 0 0,0
21.01.2020 19:00:00 -0,6 -8,4 -3,3 -0,6 0,8 3,4 23 12 26 14 W 75 0 0,0
21.01.2020 18:00:00 -0,4 -8,1 -3,8 -0,5 0,8 3,4 14 8 19 10 WNW 75 0 0,0
21.01.2020 17:00:00 0,0 -4,3 -4,7 -0,4 0,8 3,4 14 7 19 10 W 68 0 0,0
21.01.2020 16:00:00 1,9 -3,8 -0,9 -0,3 0,8 3,3 13 7 16 9 W 75 59 0,0
21.01.2020 15:00:00 3,5 -1,9 2,8 -0,3 0,9 3,3 8 5 12 7 WSW 64 60 0,0
21.01.2020 14:00:00 3,2 -3,5 4,4 -0,3 0,9 3,4 6 4 12 7 NW 75 60 0,0
21.01.2020 13:00:00 2,6 -1,7 2,7 -0,3 0,9 3,4 5 3 9 5 S 26 60 0,0
21.01.2020 12:00:00 1,6 -1,8 1,0 -0,4 0,9 3,4 4 2 15 8 S 37 60 0,0
21.01.2020 11:00:00 0,0 -2,8 -0,8 -0,5 0,9 3,4 12 7 16 9 S 32 60 0,0
21.01.2020 10:00:00 -0,9 -4,0 -2,2 -0,6 0,9 3,4 11 6 15 8 S 51 60 0,0
21.01.2020 09:00:00 -1,7 -6,7 -5,3 -0,6 0,9 3,4 11 6 16 9 SSW 75 12 0,0
21.01.2020 08:00:00 -2,5 -8,4 -8,0 -0,6 0,9 3,4 10 6 17 9 SW 75 0 0,0
21.01.2020 07:00:00 -2,5 -7,6 -8,0 -0,5 0,9 3,4 15 8 19 11 SSW 75 0 0,0
21.01.2020 06:00:00 -2,2 -7,5 -7,5 -0,5 0,9 3,4 14 7 18 10 SSW 75 0 0,0
21.01.2020 05:00:00 -3,5 -7,1 -8,9 -0,4 0,9 3,4 11 6 16 9 SSW 75 0 0,0
21.01.2020 04:00:00 -5,0 -6,0 -8,6 -0,4 0,9 3,4 11 6 19 10 SSW 14 0 0,0
21.01.2020 03:00:00 -4,9 -5,8 -6,9 -0,3 0,9 3,4 14 8 18 10 S 11 0 0,0
21.01.2020 02:00:00 -4,5 -5,5 -6,8 -0,2 0,9 3,4 16 9 19 10 S 18 0 0,0
21.01.2020 01:00:00 -4,8 -5,9 -7,1 -0,2 0,9 3,4 16 8 21 11 S 21 0 0,0
21.01.2020 00:00:00 -4,6 -5,8 -6,5 -0,1 0,9 3,4 17 9 19 11 SSW 23 0 0,0
20.01.2020 23:00:00 -4,7 -5,9 -6,8 -0,1 1,0 3,4 16 9 21 12 SW 21 0 0,0
20.01.2020 22:00:00 -5,1 -6,3 -7,4 -0,1 1,0 3,4 16 9 19 10 SW 12 0 0,0
20.01.2020 21:00:00 -4,4 -5,4 -9,1 0,0 1,0 3,4 8 4 17 9 WSW 15 0 0,0
20.01.2020 20:00:00 -4,2 -5,2 -7,1 0,0 1,0 3,4 13 7 16 8 W 11 0 0,0
20.01.2020 19:00:00 -4,0 -5,1 -6,7 0,0 1,0 3,4 12 7 16 9 W 14 0 0,0
20.01.2020 18:00:00 -3,3 -4,5 -5,1 0,0 1,0 3,4 11 6 16 9 WSW 19 0 0,0
20.01.2020 17:00:00 -2,2 -3,4 -2,6 0,0 1,0 3,4 5 3 13 7 WNW 18 0 0,0
20.01.2020 16:00:00 -1,8 -3,3 -2,0 0,0 1,0 3,4 5 3 13 7 WNW 20 0 0,0
20.01.2020 15:00:00 -1,5 -3,0 -1,5 0,0 1,0 3,4 3 2 13 7 SW 17 0 0,0
20.01.2020 14:00:00 -1,2 -3,0 -0,7 0,0 1,0 3,4 8 4 20 11 NW 19 0 0,0
20.01.2020 13:00:00 -1,3 -3,7 -0,9 0,0 1,0 3,4 14 7 22 12 NW 23 19 0,0
20.01.2020 12:00:00 -1,7 -3,7 -1,3 0,0 1,0 3,4 7 4 13 7 NW 35 0 0,0
20.01.2020 11:00:00 -1,9 -3,4 -1,7 0,0 1,0 3,4 4 2 13 7 W 30 0 0,0
20.01.2020 10:00:00 -2,2 -3,5 -2,2 0,0 1,0 3,4 4 2 14 8 NW 33 0 0,0
20.01.2020 09:00:00 -2,7 -3,9 -3,3 0,0 1,0 3,4 10 6 26 14 N 27 0 0,0
20.01.2020 08:00:00 -2,6 -4,0 -3,2 0,0 1,0 3,4 16 9 24 13 NNW 24 0 0,0
20.01.2020 07:00:00 -2,4 -3,2 -2,6 0,0 1,0 3,4 14 8 26 14 NNW 14 0 0,0
20.01.2020 06:00:00 -2,3 -3,7 -2,9 0,0 1,0 3,4 14 8 25 13 NNW 28 0 0,0
20.01.2020 05:00:00 -2,0 -2,7 -2,3 0,0 1,0 3,4 18 10 29 16 NNW 12 0 0,0
20.01.2020 04:00:00 -2,2 -3,8 -2,8 0,0 1,0 3,4 13 7 23 13 NW 39 0 0,0
20.01.2020 03:00:00 -2,1 -2,8 -2,3 0,0 1,0 3,4 13 7 23 13 NNW 13 0 0,0
20.01.2020 02:00:00 -1,9 -2,6 -2,3 0,0 1,0 3,4 15 8 25 14 NNW 12 0 0,0
20.01.2020 01:00:00 -2,2 -3,4 -3,3 0,0 1,0 3,4 16 9 27 15 NNW 23 0 0,0
20.01.2020 00:00:00 -1,9 -2,7 -2,1 0,0 1,0 3,4 17 9 27 14 NNW 14 0 0,0
19.01.2020 23:00:00 -1,7 -2,2 -2,0 0,0 1,0 3,4 17 9 29 15 N 7 0 0,0
19.01.2020 22:00:00 -1,7 -2,3 -1,8 0,0 1,0 3,4 14 8 33 18 NNW 4,3 0 0,0
19.01.2020 21:00:00 -1,8 -2,5 -2,0 0,0 1,0 3,4 16 8 27 14 NNW 12 0 0,0
19.01.2020 20:00:00 -1,9 -2,6 -2,1 0,0 1,0 3,4 17 9 27 15 NNW 13 0 0,0
19.01.2020 19:00:00 -1,8 -2,7 -2,0 0,0 1,0 3,4 19 10 30 16 N 22 0 0,0
19.01.2020 18:00:00 -2,0 -2,9 -2,3 0,0 1,0 3,4 18 10 29 16 NNW 22 0 0,0
19.01.2020 17:00:00 -1,8 -2,5 -2,0 0,0 1,0 3,4 16 8 23 13 NNW 22 0 0,4
19.01.2020 16:00:00 -1,6 -2,4 -1,8 0,0 1,0 3,4 13 7 23 13 NNW 15 0 0,0
19.01.2020 15:00:00 -1,5 -2,3 -1,3 0,0 1,0 3,4 14 8 23 13 NNW 17 0 0,0
19.01.2020 14:00:00 -1,5 -2,2 -1,3 0,0 1,0 3,4 13 7 23 13 NW 15 0 0,1
19.01.2020 13:00:00 -1,6 -2,3 -1,5 0,0 1,0 3,4 16 8 26 14 NNW 3,9 0 0,0
19.01.2020 12:00:00 -1,5 -1,9 -1,1 0,0 1,0 3,4 16 8 28 15 NW 0,4 0 0,0
19.01.2020 11:00:00 -1,7 -2,1 -1,5 0,0 1,0 3,4 14 8 26 14 NNW 0,4 0 0,0
19.01.2020 10:00:00 -1,9 -2,4 -1,8 0,0 1,0 3,4 13 7 21 11 NW 0,2 0 0,7
19.01.2020 09:00:00 -2,1 -2,5 -2,0 0,0 1,0 3,4 10 6 23 12 WNW 0,1 0 0,0
19.01.2020 08:00:00 -2,1 -2,6 -2,0 0,0 1,0 3,5 12 6 26 14 WNW 0,1 0 0,0
19.01.2020 07:00:00 -2,1 -2,8 -2,3 0,0 1,0 3,5 13 7 25 14 NNW 12 0 0,0
19.01.2020 06:00:00 -2,0 -2,5 -2,0 0,0 1,0 3,5 15 8 28 15 NNW 1,2 0 0,6
19.01.2020 05:00:00 -1,7 -2,0 -1,8 0,0 1,0 3,5 12 7 24 13 NW 0,3 0 0,9
19.01.2020 04:00:00 -1,5 -2,1 -1,6 0,0 1,0 3,5 9 5 19 10 WNW 1,9 0 0,0
19.01.2020 03:00:00 -1,4 -2,2 -1,5 0,0 1,0 3,5 9 5 19 10 WNW 6 0 0,0
19.01.2020 02:00:00 -1,1 -2,3 -1,3 0,0 1,0 3,5 8 4 18 10 WNW 21 0 0,0
19.01.2020 01:00:00 -0,9 -2,2 -1,3 0,0 1,0 3,5 9 5 20 11 W 20 0 0,1
19.01.2020 00:00:00 -0,7 -2,2 -1,1 0,0 1,0 3,5 9 5 20 11 W 42 0 0,0
18.01.2020 23:00:00 -0,7 -2,5 -1,0 0,0 1,0 3,5 9 5 16 9 W 48 0 0,0
18.01.2020 22:00:00 -0,7 -2,6 -1,3 0,0 1,0 3,5 8 4 18 10 W 58 0 0,0
18.01.2020 21:00:00 -0,8 -2,8 -1,8 0,0 1,0 3,5 10 5 17 9 W 64 0 0,0
18.01.2020 20:00:00 -0,8 -2,6 -2,3 0,0 1,0 3,5 9 5 16 9 WSW 63 0 0,0
18.01.2020 19:00:00 -0,3 -2,4 -0,8 0,0 1,0 3,5 8 4 19 11 W 67 0 0,0
18.01.2020 18:00:00 -0,2 -2,2 -0,5 0,0 1,0 3,5 8 4 15 8 WSW 65 0 0,0
18.01.2020 17:00:00 0,0 -2,3 -0,4 0,0 1,0 3,5 8 5 22 12 W 75 0 0,0
18.01.2020 16:00:00 0,2 -2,0 0,0 0,0 1,0 3,5 8 4 18 10 W 75 0 0,0
18.01.2020 15:00:00 0,3 -1,8 0,2 0,0 1,0 3,5 10 5 20 11 W 67 0 0,0
18.01.2020 14:00:00 0,2 -1,7 0,2 0,0 1,0 3,5 10 6 24 13 WNW 56 0 0,0
18.01.2020 13:00:00 0,1 -1,3 0,2 0,0 1,0 3,5 10 6 23 12 W 45 0 0,0
18.01.2020 12:00:00 0,0 -1,3 0,0 0,0 1,0 3,5 14 7 26 14 W 34 0 0,0
18.01.2020 11:00:00 -0,2 -1,3 -0,2 0,0 1,0 3,5 17 9 32 18 W 35 0 0,0
18.01.2020 10:00:00 -0,1 -1,0 -0,1 0,0 1,0 3,5 15 8 26 14 WNW 23 0 0,0
18.01.2020 09:00:00 -0,2 -1,0 -0,3 0,0 1,0 3,5 13 7 28 15 WNW 25 0 0,0
18.01.2020 08:00:00 0,1 -0,7 -0,3 0,0 1,0 3,5 18 10 33 18 W 21 0 0,0
18.01.2020 07:00:00 1,0 0,7 0,8 0,0 1,0 3,5 13 7 33 18 W 10 0 0,0
18.01.2020 06:00:00 1,1 0,7 0,8 0,0 1,0 3,5 18 10 29 15 W 12 0 0,0
18.01.2020 05:00:00 1,1 0,8 0,9 0,0 1,0 3,5 13 7 35 19 W 11 0 0,1
18.01.2020 04:00:00 0,8 0,8 0,0 0,0 1,0 3,5 11 6 27 14 W 0,7 0 0,7
18.01.2020 03:00:00 -0,8 -0,8 -0,3 0,0 1,0 3,5 12 6 20 11 SW 0,3 0 0,0
18.01.2020 02:00:00 -1,5 -1,9 -1,3 0,0 1,0 3,5 17 9 25 13 S 0,1 0 0,0
18.01.2020 01:00:00 -1,8 -2,2 -1,8 0,0 1,1 3,5 16 8 26 14 S 0,1 0 0,0
18.01.2020 00:00:00 -2,2 -2,7 -2,2 0,0 1,1 3,5 22 12 30 16 S 0,1 0 0,0
17.01.2020 23:00:00 -1,8 -2,2 -1,8 0,0 1,1 3,5 22 12 28 15 SSW 0,3 0 0,0
17.01.2020 22:00:00 -2,5 -3,0 -3,0 0,0 1,1 3,5 18 10 27 15 SSW 0,1 0 0,0
17.01.2020 21:00:00 -2,1 -2,7 -2,8 0,0 1,1 3,5 19 10 29 16 S 0,1 0 0,0
17.01.2020 20:00:00 -1,9 -2,4 -2,5 0,0 1,1 3,5 23 12 32 17 SSW 0,2 0 0,0
17.01.2020 19:00:00 -2,3 -2,8 -2,5 0,0 1,1 3,5 25 13 32 18 SSW 0,2 0 0,0
17.01.2020 18:00:00 -2,8 -3,3 -2,7 0,0 1,1 3,5 24 13 38 21 S 0,1 0 0,0
17.01.2020 17:00:00 -3,0 -3,5 -2,8 0,1 1,1 3,5 27 15 40 22 S 0,1 0 0,0
17.01.2020 16:00:00 -2,6 -3,0 -2,4 0,1 1,1 3,5 32 17 43 23 S 0,1 0 0,0
17.01.2020 15:00:00 -2,0 -2,4 -1,8 0,1 1,1 3,5 28 15 42 23 S 0,1 0 0,0
17.01.2020 14:00:00 -1,6 -1,9 -1,4 0,1 1,1 3,5 26 14 40 22 S 0,1 0 0,0
17.01.2020 13:00:00 -1,5 -1,8 -1,2 0,1 1,1 3,5 27 15 41 22 S 0,1 0 0,0
17.01.2020 12:00:00 -1,7 -2,0 -1,5 0,1 1,1 3,5 24 13 51 28 S 0,1 0 0,0
17.01.2020 11:00:00 -1,8 -2,2 -1,6 0,1 1,1 3,5 35 19 49 26 SSE 0,1 0 0,0
17.01.2020 10:00:00 -1,7 -2,1 -1,5 0,1 1,1 3,5 34 18 46 25 S 0,1 0 0,0
17.01.2020 09:00:00 -1,6 -1,9 -1,4 0,0 1,1 3,5 22 12 39 21 S 0,1 0 0,0
17.01.2020 08:00:00 -1,7 -1,9 -1,6 0,0 1,2 3,5 31 17 47 25 S 0,1 0 0,0
17.01.2020 07:00:00 -1,5 -1,8 -1,5 0,0 1,2 3,5 41 22 52 28 S 0,1 0 0,0
17.01.2020 06:00:00 -1,5 -1,8 -1,5 0,1 1,2 3,5 34 18 49 26 S 0,1 0 0,0
17.01.2020 05:00:00 -1,1 -1,4 -1,1 0,1 1,2 3,5 32 18 44 24 S 0,1 0 0,0
17.01.2020 04:00:00 -1,7 -2,0 -1,6 0,0 1,2 3,5 27 15 39 21 S 0,1 0 0,0
17.01.2020 03:00:00 -1,1 -1,4 -1,4 0,0 1,2 3,5 31 17 41 22 S 0,1 0 0,0
17.01.2020 02:00:00 -1,1 -1,5 -1,8 0,1 1,2 3,5 29 16 37 20 S 0,2 0 0,0
17.01.2020 01:00:00 -1,2 -1,7 -1,8 0,1 1,3 3,5 16 9 24 13 S 0,1 0 0,0
17.01.2020 00:00:00 0,0 -0,8 -1,2 0,1 1,3 3,5 18 10 23 12 S 8 0 0,0
16.01.2020 23:00:00 0,5 -0,2 -0,7 0,1 1,3 3,5 18 10 27 15 S 8 0 0,0
16.01.2020 22:00:00 1,0 0,2 -0,3 0,2 1,3 3,5 23 12 29 16 S 15 0 0,0
16.01.2020 21:00:00 0,5 -0,3 -0,7 0,2 1,3 3,5 18 10 27 15 S 7 0 0,0
16.01.2020 20:00:00 0,8 0,2 -0,1 0,2 1,3 3,5 19 10 27 14 S 10 0 0,0
16.01.2020 19:00:00 1,3 0,7 0,1 0,2 1,3 3,5 20 11 25 14 S 11 0 0,0
16.01.2020 18:00:00 1,3 0,6 0,1 0,2 1,3 3,5 17 9 20 11 S 12 0 0,0
16.01.2020 17:00:00 1,7 0,7 0,1 0,3 1,3 3,5 16 9 20 11 S 11 0 0,0
16.01.2020 16:00:00 3,5 1,4 1,3 0,5 1,2 3,5 12 6 20 11 S 11 49 0,0
16.01.2020 15:00:00 6,5 3,1 6,5 1,1 1,1 3,5 15 8 22 12 SSW 36 50 0,0
16.01.2020 14:00:00 6,6 3,0 6,4 0,8 1,1 3,5 13 7 22 12 S 20 58 0,0
16.01.2020 13:00:00 6,8 3,5 7,0 0,1 1,1 3,5 13 7 17 9 S 33 60 0,0
16.01.2020 12:00:00 7,2 3,9 6,2 0,1 1,1 3,5 7 4 17 9 SSE 41 60 0,0
16.01.2020 11:00:00 6,7 2,8 5,7 0,1 1,1 3,5 10 5 17 9 WSW 59 60 0,0
16.01.2020 10:00:00 4,3 2,6 3,7 0,1 1,1 3,5 11 6 16 9 WSW 43 15 0,0
16.01.2020 09:00:00 3,4 2,4 2,0 0,1 1,1 3,6 6 3 18 10 SW 40 0 0,0
16.01.2020 08:00:00 3,3 2,1 0,7 0,1 1,1 3,6 9 5 18 10 W 51 0 0,0
16.01.2020 07:00:00 4,1 2,5 2,9 0,1 1,1 3,6 9 5 18 10 W 52 0 0,0
16.01.2020 06:00:00 4,0 2,2 3,2 0,1 1,1 3,6 9 5 21 11 W 62 0 0,0
16.01.2020 05:00:00 4,1 1,9 3,2 0,1 1,1 3,6 14 7 24 13 W 65 0 0,0
16.01.2020 04:00:00 3,7 1,7 3,0 0,1 1,1 3,6 16 9 29 16 W 61 0 0,0
16.01.2020 03:00:00 3,1 1,1 2,7 0,1 1,1 3,6 21 11 39 21 W 52 0 0,0
16.01.2020 02:00:00 1,4 0,1 1,2 0,1 1,1 3,6 21 11 38 21 WSW 32 0 0,0
16.01.2020 01:00:00 -2,3 -2,8 -3,1 0,1 1,1 3,6 23 12 29 16 SSW 8 0 0,0

tt = temperature
td = dewpoint
tt 5cm = temperature 5cm
tt -5cm = temperature -5cm
tt -20cm = temperature -20cm
tt -100cm = temperature -100cm
ff = wind speed
fx = gusts
dd = wind direction
vv = visibility
sd = sunshine duration
rr = precipitation

Next stations